sensor_id;sensor_type;location;lat;lon;timestamp;pressure;altitude;pressure_sealevel;temperature;humidity
49104;BME280;34915;52.926;11.116;2023-05-21T00:00:37;101943.28;;;12.90;94.00
49104;BME280;34915;52.926;11.116;2023-05-21T00:03:02;101941.38;;;12.92;93.56
49104;BME280;34915;52.926;11.116;2023-05-21T00:05:30;101941.94;;;12.83;92.92
49104;BME280;34915;52.926;11.116;2023-05-21T00:07:57;101932.19;;;12.84;93.94
49104;BME280;34915;52.926;11.116;2023-05-21T00:10:22;101945.56;;;12.82;94.24
49104;BME280;34915;52.926;11.116;2023-05-21T00:12:48;101938.34;;;12.84;94.23
49104;BME280;34915;52.926;11.116;2023-05-21T00:15:13;101940.22;;;12.82;93.45
49104;BME280;34915;52.926;11.116;2023-05-21T00:17:39;101930.81;;;12.77;93.79
49104;BME280;34915;52.926;11.116;2023-05-21T00:20:05;101938.50;;;12.81;92.70
49104;BME280;34915;52.926;11.116;2023-05-21T00:22:32;101936.78;;;12.80;93.23
49104;BME280;34915;52.926;11.116;2023-05-21T00:25:00;101938.44;;;12.83;93.41
49104;BME280;34915;52.926;11.116;2023-05-21T00:27:28;101923.88;;;12.75;92.71
49104;BME280;34915;52.926;11.116;2023-05-21T00:29:54;101921.03;;;12.77;93.10
49104;BME280;34915;52.926;11.116;2023-05-21T00:32:22;101925.41;;;12.78;93.62
49104;BME280;34915;52.926;11.116;2023-05-21T00:34:47;101930.91;;;12.76;93.34
49104;BME280;34915;52.926;11.116;2023-05-21T00:37:13;101919.69;;;12.71;93.81
49104;BME280;34915;52.926;11.116;2023-05-21T00:39:40;101921.78;;;12.66;93.12
49104;BME280;34915;52.926;11.116;2023-05-21T00:42:05;101920.25;;;12.62;94.73
49104;BME280;34915;52.926;11.116;2023-05-21T00:44:31;101916.63;;;12.63;94.62
49104;BME280;34915;52.926;11.116;2023-05-21T00:47:03;101919.59;;;12.58;94.29
49104;BME280;34915;52.926;11.116;2023-05-21T00:49:30;101902.19;;;12.53;94.46
49104;BME280;34915;52.926;11.116;2023-05-21T00:51:56;101908.25;;;12.55;94.98
49104;BME280;34915;52.926;11.116;2023-05-21T00:54:22;101915.66;;;12.50;94.58
49104;BME280;34915;52.926;11.116;2023-05-21T00:56:48;101908.81;;;12.46;95.55
49104;BME280;34915;52.926;11.116;2023-05-21T00:59:15;101913.47;;;12.42;95.54
49104;BME280;34915;52.926;11.116;2023-05-21T01:01:44;101910.72;;;12.44;94.70
49104;BME280;34915;52.926;11.116;2023-05-21T01:04:10;101903.31;;;12.35;95.50
49104;BME280;34915;52.926;11.116;2023-05-21T01:06:36;101892.06;;;12.30;95.62
49104;BME280;34915;52.926;11.116;2023-05-21T01:09:03;101906.16;;;12.32;96.41
49104;BME280;34915;52.926;11.116;2023-05-21T01:11:40;101906.16;;;12.32;96.12
49104;BME280;34915;52.926;11.116;2023-05-21T01:14:09;101892.63;;;12.21;95.51
49104;BME280;34915;52.926;11.116;2023-05-21T01:16:41;101900.22;;;12.27;96.64
49104;BME280;34915;52.926;11.116;2023-05-21T01:19:09;101903.25;;;12.21;96.14
49104;BME280;34915;52.926;11.116;2023-05-21T01:21:41;101886.00;;;12.14;97.02
49104;BME280;34915;52.926;11.116;2023-05-21T01:24:09;101901.75;;;12.17;95.96
49104;BME280;34915;52.926;11.116;2023-05-21T01:26:34;101899.28;;;12.14;96.33
49104;BME280;34915;52.926;11.116;2023-05-21T01:29:06;101898.84;;;12.06;96.70
49104;BME280;34915;52.926;11.116;2023-05-21T01:34:24;101891.81;;;12.05;96.17
49104;BME280;34915;52.926;11.116;2023-05-21T01:37:09;101886.88;;;11.99;96.53
49104;BME280;34915;52.926;11.116;2023-05-21T01:39:38;101884.22;;;11.99;97.14
49104;BME280;34915;52.926;11.116;2023-05-21T01:42:09;101882.97;;;11.91;98.08
49104;BME280;34915;52.926;11.116;2023-05-21T01:44:35;101874.91;;;11.92;98.81
49104;BME280;34915;52.926;11.116;2023-05-21T01:47:02;101874.91;;;11.92;98.64
49104;BME280;34915;52.926;11.116;2023-05-21T01:49:29;101875.06;;;11.89;99.00
49104;BME280;34915;52.926;11.116;2023-05-21T01:51:55;101870.72;;;11.88;99.45
49104;BME280;34915;52.926;11.116;2023-05-21T01:54:20;101879.34;;;11.92;98.90
49104;BME280;34915;52.926;11.116;2023-05-21T01:56:48;101870.97;;;11.84;98.63
49104;BME280;34915;52.926;11.116;2023-05-21T01:59:16;101871.66;;;11.87;99.06
49104;BME280;34915;52.926;11.116;2023-05-21T02:01:42;101865.59;;;11.85;98.66
49104;BME280;34915;52.926;11.116;2023-05-21T02:04:08;101871.81;;;11.84;99.02
49104;BME280;34915;52.926;11.116;2023-05-21T02:06:33;101864.44;;;11.89;99.58
49104;BME280;34915;52.926;11.116;2023-05-21T02:09:00;101862.06;;;11.85;98.78
49104;BME280;34915;52.926;11.116;2023-05-21T02:11:27;101861.22;;;11.84;99.20
49104;BME280;34915;52.926;11.116;2023-05-21T02:13:52;101870.09;;;11.83;100.00
49104;BME280;34915;52.926;11.116;2023-05-21T02:16:18;101861.56;;;11.79;99.63
49104;BME280;34915;52.926;11.116;2023-05-21T02:18:44;101870.66;;;11.75;99.70
49104;BME280;34915;52.926;11.116;2023-05-21T02:21:13;101865.34;;;11.75;99.82
49104;BME280;34915;52.926;11.116;2023-05-21T02:23:39;101860.19;;;11.72;100.00
49104;BME280;34915;52.926;11.116;2023-05-21T02:26:06;101851.47;;;11.70;100.00
49104;BME280;34915;52.926;11.116;2023-05-21T02:28:32;101860.56;;;11.66;100.00
49104;BME280;34915;52.926;11.116;2023-05-21T02:30:58;101865.13;;;11.64;100.00
49104;BME280;34915;52.926;11.116;2023-05-21T02:33:24;101865.69;;;11.69;100.00
49104;BME280;34915;52.926;11.116;2023-05-21T02:35:50;101867.59;;;11.67;100.00
49104;BME280;34915;52.926;11.116;2023-05-21T02:38:15;101865.88;;;11.66;100.00
49104;BME280;34915;52.926;11.116;2023-05-21T02:40:46;101858.16;;;11.61;100.00
49104;BME280;34915;52.926;11.116;2023-05-21T02:43:12;101868.28;;;11.55;100.00
49104;BME280;34915;52.926;11.116;2023-05-21T02:45:38;101865.56;;;11.56;100.00
49104;BME280;34915;52.926;11.116;2023-05-21T02:48:04;101863.16;;;11.52;100.00
49104;BME280;34915;52.926;11.116;2023-05-21T02:50:29;101846.69;;;11.45;100.00
49104;BME280;34915;52.926;11.116;2023-05-21T02:52:55;101859.53;;;11.53;100.00
49104;BME280;34915;52.926;11.116;2023-05-21T02:55:21;101860.25;;;11.56;100.00
49104;BME280;34915;52.926;11.116;2023-05-21T02:57:47;101861.25;;;11.54;100.00
49104;BME280;34915;52.926;11.116;2023-05-21T03:00:12;101865.91;;;11.50;100.00
49104;BME280;34915;52.926;11.116;2023-05-21T03:02:41;101855.28;;;11.50;100.00
49104;BME280;34915;52.926;11.116;2023-05-21T03:05:06;101852.53;;;11.52;100.00
49104;BME280;34915;52.926;11.116;2023-05-21T03:07:32;101855.88;;;11.55;100.00
49104;BME280;34915;52.926;11.116;2023-05-21T03:09:58;101846.38;;;11.51;100.00
49104;BME280;34915;52.926;11.116;2023-05-21T03:12:23;101850.81;;;11.51;100.00
49104;BME280;34915;52.926;11.116;2023-05-21T03:14:49;101848.94;;;11.53;100.00
49104;BME280;34915;52.926;11.116;2023-05-21T03:17:16;101844.13;;;11.44;100.00
49104;BME280;34915;52.926;11.116;2023-05-21T03:19:42;101847.69;;;11.43;100.00
49104;BME280;34915;52.926;11.116;2023-05-21T03:22:09;101833.84;;;11.38;100.00
49104;BME280;34915;52.926;11.116;2023-05-21T03:24:37;101837.09;;;11.43;100.00
49104;BME280;34915;52.926;11.116;2023-05-21T03:27:03;101843.34;;;11.42;100.00
49104;BME280;34915;52.926;11.116;2023-05-21T03:29:31;101833.19;;;11.34;100.00
49104;BME280;34915;52.926;11.116;2023-05-21T03:31:57;101839.16;;;11.38;100.00
49104;BME280;34915;52.926;11.116;2023-05-21T03:34:22;101834.03;;;11.35;100.00
49104;BME280;34915;52.926;11.116;2023-05-21T03:36:49;101836.69;;;11.35;100.00
49104;BME280;34915;52.926;11.116;2023-05-21T03:39:14;101834.03;;;11.35;100.00
49104;BME280;34915;52.926;11.116;2023-05-21T03:41:40;101821.88;;;11.31;100.00
49104;BME280;34915;52.926;11.116;2023-05-21T03:44:08;101827.00;;;11.34;100.00
49104;BME280;34915;52.926;11.116;2023-05-21T03:46:34;101831.38;;;11.35;100.00
49104;BME280;34915;52.926;11.116;2023-05-21T03:48:59;101826.50;;;11.28;100.00
49104;BME280;34915;52.926;11.116;2023-05-21T03:51:25;101836.09;;;11.30;100.00
49104;BME280;34915;52.926;11.116;2023-05-21T03:53:51;101832.31;;;11.34;100.00
49104;BME280;34915;52.926;11.116;2023-05-21T03:56:17;101821.88;;;11.31;100.00
49104;BME280;34915;52.926;11.116;2023-05-21T03:58:43;101813.34;;;11.26;100.00
49104;BME280;34915;52.926;11.116;2023-05-21T04:01:08;101827.53;;;11.25;100.00
49104;BME280;34915;52.926;11.116;2023-05-21T04:03:35;101824.13;;;11.23;100.00
49104;BME280;34915;52.926;11.116;2023-05-21T04:06:04;101829.25;;;11.26;100.00
49104;BME280;34915;52.926;11.116;2023-05-21T04:08:30;101836.34;;;11.26;100.00
49104;BME280;34915;52.926;11.116;2023-05-21T04:10:56;101824.13;;;11.23;100.00
49104;BME280;34915;52.926;11.116;2023-05-21T04:13:24;101836.28;;;11.27;100.00
49104;BME280;34915;52.926;11.116;2023-05-21T04:15:50;101841.22;;;11.33;100.00
49104;BME280;34915;52.926;11.116;2023-05-21T04:18:15;101828.91;;;11.32;100.00
49104;BME280;34915;52.926;11.116;2023-05-21T04:20:42;101826.16;;;11.33;100.00
49104;BME280;34915;52.926;11.116;2023-05-21T04:23:08;101825.13;;;11.36;100.00
49104;BME280;34915;52.926;11.116;2023-05-21T04:25:36;101820.69;;;11.36;100.00
49104;BME280;34915;52.926;11.116;2023-05-21T04:28:03;101829.91;;;11.45;100.00
49104;BME280;34915;52.926;11.116;2023-05-21T04:30:29;101836.44;;;11.55;100.00
49104;BME280;34915;52.926;11.116;2023-05-21T04:32:54;101812.66;;;11.53;100.00
49104;BME280;34915;52.926;11.116;2023-05-21T04:35:20;101809.72;;;11.58;100.00
49104;BME280;34915;52.926;11.116;2023-05-21T04:37:45;101833.28;;;11.78;100.00
49104;BME280;34915;52.926;11.116;2023-05-21T04:40:12;101830.19;;;11.85;100.00
49104;BME280;34915;52.926;11.116;2023-05-21T04:42:43;101830.69;;;11.91;100.00
49104;BME280;34915;52.926;11.116;2023-05-21T04:45:11;101838.03;;;12.02;100.00
49104;BME280;34915;52.926;11.116;2023-05-21T04:47:36;101836.63;;;12.10;100.00
49104;BME280;34915;52.926;11.116;2023-05-21T04:50:05;101831.97;;;12.14;100.00
49104;BME280;34915;52.926;11.116;2023-05-21T04:52:31;101835.72;;;12.25;100.00
49104;BME280;34915;52.926;11.116;2023-05-21T04:54:59;101846.16;;;12.28;100.00
49104;BME280;34915;52.926;11.116;2023-05-21T04:57:26;101838.94;;;12.30;100.00
49104;BME280;34915;52.926;11.116;2023-05-21T04:59:52;101843.22;;;12.32;100.00
49104;BME280;34915;52.926;11.116;2023-05-21T05:02:18;101834.31;;;12.33;100.00
49104;BME280;34915;52.926;11.116;2023-05-21T05:04:44;101832.69;;;12.31;100.00
49104;BME280;34915;52.926;11.116;2023-05-21T05:07:10;101833.63;;;12.30;100.00
49104;BME280;34915;52.926;11.116;2023-05-21T05:09:36;101820.94;;;12.35;100.00
49104;BME280;34915;52.926;11.116;2023-05-21T05:12:02;101829.47;;;12.40;100.00
49104;BME280;34915;52.926;11.116;2023-05-21T05:14:28;101827.41;;;12.45;100.00
49104;BME280;34915;52.926;11.116;2023-05-21T05:16:53;101830.63;;;12.50;100.00
49104;BME280;34915;52.926;11.116;2023-05-21T05:19:23;101823.03;;;12.58;100.00
49104;BME280;34915;52.926;11.116;2023-05-21T05:21:49;101827.78;;;12.67;100.00
49104;BME280;34915;52.926;11.116;2023-05-21T05:24:15;101816.75;;;12.73;100.00
49104;BME280;34915;52.926;11.116;2023-05-21T05:26:40;101817.16;;;12.94;100.00
49104;BME280;34915;52.926;11.116;2023-05-21T05:29:06;101823.59;;;13.04;100.00
49104;BME280;34915;52.926;11.116;2023-05-21T05:31:34;101819.94;;;13.19;100.00
49104;BME280;34915;52.926;11.116;2023-05-21T05:33:59;101822.22;;;13.25;100.00
49104;BME280;34915;52.926;11.116;2023-05-21T05:36:25;101824.06;;;13.37;100.00
49104;BME280;34915;52.926;11.116;2023-05-21T05:38:51;101826.53;;;13.40;100.00
49104;BME280;34915;52.926;11.116;2023-05-21T05:41:17;101815.47;;;13.46;100.00
49104;BME280;34915;52.926;11.116;2023-05-21T05:43:42;101827.25;;;13.56;100.00
49104;BME280;34915;52.926;11.116;2023-05-21T05:46:08;101796.66;;;13.49;100.00
49104;BME280;34915;52.926;11.116;2023-05-21T05:48:33;101817.09;;;13.75;100.00
49104;BME280;34915;52.926;11.116;2023-05-21T05:50:59;101818.59;;;13.78;100.00
49104;BME280;34915;52.926;11.116;2023-05-21T05:53:25;101819.47;;;13.91;100.00
49104;BME280;34915;52.926;11.116;2023-05-21T05:55:51;101820.53;;;14.01;100.00
49104;BME280;34915;52.926;11.116;2023-05-21T05:58:17;101817.63;;;14.18;100.00
49104;BME280;34915;52.926;11.116;2023-05-21T06:00:42;101823.84;;;14.31;100.00
49104;BME280;34915;52.926;11.116;2023-05-21T06:03:08;101818.47;;;14.43;98.49
49104;BME280;34915;52.926;11.116;2023-05-21T06:05:33;101819.88;;;14.49;99.14
49104;BME280;34915;52.926;11.116;2023-05-21T06:07:59;101818.72;;;14.53;99.83
49104;BME280;34915;52.926;11.116;2023-05-21T06:10:25;101813.16;;;14.56;99.55
49104;BME280;34915;52.926;11.116;2023-05-21T06:12:51;101813.13;;;14.68;100.00
49104;BME280;34915;52.926;11.116;2023-05-21T06:15:16;101809.28;;;14.72;100.00
49104;BME280;34915;52.926;11.116;2023-05-21T06:17:43;101792.44;;;14.72;100.00
49104;BME280;34915;52.926;11.116;2023-05-21T06:20:09;101815.44;;;14.97;100.00
49104;BME280;34915;52.926;11.116;2023-05-21T06:22:36;101809.47;;;15.06;100.00
49104;BME280;34915;52.926;11.116;2023-05-21T06:25:01;101795.91;;;15.09;99.38
49104;BME280;34915;52.926;11.116;2023-05-21T06:27:27;101810.09;;;15.22;100.00
49104;BME280;34915;52.926;11.116;2023-05-21T06:29:52;101805.13;;;15.28;100.00
49104;BME280;34915;52.926;11.116;2023-05-21T06:32:18;101805.94;;;15.41;99.10
49104;BME280;34915;52.926;11.116;2023-05-21T06:34:45;101806.34;;;15.48;98.99
49104;BME280;34915;52.926;11.116;2023-05-21T06:37:11;101802.25;;;15.55;99.42
49104;BME280;34915;52.926;11.116;2023-05-21T06:39:37;101793.88;;;15.59;100.00
49104;BME280;34915;52.926;11.116;2023-05-21T06:42:02;101796.28;;;15.75;97.77
49104;BME280;34915;52.926;11.116;2023-05-21T06:44:30;101806.66;;;15.90;99.06
49104;BME280;34915;52.926;11.116;2023-05-21T06:46:55;101805.34;;;16.06;98.63
49104;BME280;34915;52.926;11.116;2023-05-21T06:49:21;101798.22;;;16.18;97.91
49104;BME280;34915;52.926;11.116;2023-05-21T06:51:47;101799.13;;;16.29;98.71
49104;BME280;34915;52.926;11.116;2023-05-21T06:54:12;101795.50;;;16.41;98.39
49104;BME280;34915;52.926;11.116;2023-05-21T06:56:38;101798.44;;;16.49;97.59
49104;BME280;34915;52.926;11.116;2023-05-21T06:59:04;101796.00;;;16.57;96.92
49104;BME280;34915;52.926;11.116;2023-05-21T07:01:30;101794.06;;;16.59;98.60
49104;BME280;34915;52.926;11.116;2023-05-21T07:03:56;101784.06;;;16.72;97.44
49104;BME280;34915;52.926;11.116;2023-05-21T07:06:22;101776.56;;;16.77;94.50
49104;BME280;34915;52.926;11.116;2023-05-21T07:08:48;101780.91;;;16.88;94.50
49104;BME280;34915;52.926;11.116;2023-05-21T07:11:14;101782.38;;;16.92;96.32
49104;BME280;34915;52.926;11.116;2023-05-21T07:13:39;101782.09;;;17.06;95.15
49104;BME280;34915;52.926;11.116;2023-05-21T07:16:05;101786.50;;;17.07;94.59
49104;BME280;34915;52.926;11.116;2023-05-21T07:18:31;101776.63;;;17.19;95.10
49104;BME280;34915;52.926;11.116;2023-05-21T07:20:57;101776.97;;;17.36;97.97
49104;BME280;34915;52.926;11.116;2023-05-21T07:23:22;101773.97;;;17.50;95.31
49104;BME280;34915;52.926;11.116;2023-05-21T07:25:48;101765.03;;;17.60;93.85
49104;BME280;34915;52.926;11.116;2023-05-21T07:28:14;101772.22;;;17.71;92.78
49104;BME280;34915;52.926;11.116;2023-05-21T07:30:40;101775.78;;;17.80;93.31
49104;BME280;34915;52.926;11.116;2023-05-21T07:33:05;101759.94;;;17.88;92.67
49104;BME280;34915;52.926;11.116;2023-05-21T07:35:31;101772.00;;;18.14;92.97
49104;BME280;34915;52.926;11.116;2023-05-21T07:37:56;101774.03;;;18.22;90.91
49104;BME280;34915;52.926;11.116;2023-05-21T07:40:22;101766.56;;;18.25;92.04
49104;BME280;34915;52.926;11.116;2023-05-21T07:42:48;101765.13;;;18.21;91.25
49104;BME280;34915;52.926;11.116;2023-05-21T07:45:13;101773.81;;;18.34;89.31
49104;BME280;34915;52.926;11.116;2023-05-21T07:47:39;101767.03;;;18.30;90.07
49104;BME280;34915;52.926;11.116;2023-05-21T07:50:05;101765.84;;;18.23;90.64
49104;BME280;34915;52.926;11.116;2023-05-21T07:52:31;101764.91;;;18.13;89.79
49104;BME280;34915;52.926;11.116;2023-05-21T07:54:56;101774.94;;;18.31;89.21
49104;BME280;34915;52.926;11.116;2023-05-21T07:57:22;101761.91;;;18.27;88.94
49104;BME280;34915;52.926;11.116;2023-05-21T07:59:48;101769.06;;;18.37;88.42
49104;BME280;34915;52.926;11.116;2023-05-21T08:02:13;101771.59;;;18.39;89.39
49104;BME280;34915;52.926;11.116;2023-05-21T08:04:39;101774.44;;;18.47;89.58
49104;BME280;34915;52.926;11.116;2023-05-21T08:07:04;101770.25;;;18.54;90.04
49104;BME280;34915;52.926;11.116;2023-05-21T08:09:30;101774.81;;;18.63;89.00
49104;BME280;34915;52.926;11.116;2023-05-21T08:11:56;101769.72;;;18.60;88.60
49104;BME280;34915;52.926;11.116;2023-05-21T08:14:22;101767.66;;;18.73;90.77
49104;BME280;34915;52.926;11.116;2023-05-21T08:16:49;101761.81;;;18.68;90.29
49104;BME280;34915;52.926;11.116;2023-05-21T08:19:15;101768.09;;;18.77;90.10
49104;BME280;34915;52.926;11.116;2023-05-21T08:21:41;101771.66;;;18.87;88.99
49104;BME280;34915;52.926;11.116;2023-05-21T08:24:06;101747.53;;;18.97;88.23
49104;BME280;34915;52.926;11.116;2023-05-21T08:26:32;101767.53;;;19.13;85.75
49104;BME280;34915;52.926;11.116;2023-05-21T08:28:58;101766.25;;;19.17;85.48
49104;BME280;34915;52.926;11.116;2023-05-21T08:31:23;101766.72;;;19.22;85.30
49104;BME280;34915;52.926;11.116;2023-05-21T08:33:52;101752.56;;;19.20;85.20
49104;BME280;34915;52.926;11.116;2023-05-21T08:36:18;101767.16;;;19.46;88.06
49104;BME280;34915;52.926;11.116;2023-05-21T08:38:45;101766.47;;;19.63;87.02
49104;BME280;34915;52.926;11.116;2023-05-21T08:41:11;101768.72;;;19.76;85.73
49104;BME280;34915;52.926;11.116;2023-05-21T08:43:40;101769.47;;;19.78;84.15
49104;BME280;34915;52.926;11.116;2023-05-21T08:46:07;101765.22;;;19.85;87.02
49104;BME280;34915;52.926;11.116;2023-05-21T08:48:35;101768.06;;;19.93;84.79
49104;BME280;34915;52.926;11.116;2023-05-21T08:51:01;101763.53;;;20.03;88.28
49104;BME280;34915;52.926;11.116;2023-05-21T08:53:27;101760.06;;;20.20;87.04
49104;BME280;34915;52.926;11.116;2023-05-21T08:55:54;101760.78;;;20.22;84.03
49104;BME280;34915;52.926;11.116;2023-05-21T08:58:22;101759.47;;;20.35;83.55
49104;BME280;34915;52.926;11.116;2023-05-21T09:00:48;101751.81;;;20.40;86.19
49104;BME280;34915;52.926;11.116;2023-05-21T09:03:14;101743.13;;;20.56;83.51
49104;BME280;34915;52.926;11.116;2023-05-21T09:05:41;101756.69;;;20.64;85.25
49104;BME280;34915;52.926;11.116;2023-05-21T09:08:16;101753.16;;;20.73;85.89
49104;BME280;34915;52.926;11.116;2023-05-21T09:10:50;101758.09;;;20.68;85.33
49104;BME280;34915;52.926;11.116;2023-05-21T09:13:17;101753.09;;;20.82;82.30
49104;BME280;34915;52.926;11.116;2023-05-21T09:15:44;101750.72;;;20.70;82.22
49104;BME280;34915;52.926;11.116;2023-05-21T09:18:10;101763.94;;;20.73;84.02
49104;BME280;34915;52.926;11.116;2023-05-21T09:20:39;101745.38;;;20.60;83.10
49104;BME280;34915;52.926;11.116;2023-05-21T09:23:06;101754.19;;;20.53;84.04
49104;BME280;34915;52.926;11.116;2023-05-21T09:25:37;101752.47;;;20.52;84.79
49104;BME280;34915;52.926;11.116;2023-05-21T09:28:03;101748.66;;;20.45;83.70
49104;BME280;34915;52.926;11.116;2023-05-21T09:30:35;101753.19;;;20.54;84.17
49104;BME280;34915;52.926;11.116;2023-05-21T09:33:01;101748.59;;;20.64;83.95
49104;BME280;34915;52.926;11.116;2023-05-21T09:35:27;101753.28;;;20.62;82.24
49104;BME280;34915;52.926;11.116;2023-05-21T09:37:54;101752.00;;;20.66;82.39
49104;BME280;34915;52.926;11.116;2023-05-21T09:40:21;101751.44;;;20.72;84.09
49104;BME280;34915;52.926;11.116;2023-05-21T09:42:48;101748.31;;;20.67;84.22
49104;BME280;34915;52.926;11.116;2023-05-21T09:47:44;101748.03;;;20.70;82.88
49104;BME280;34915;52.926;11.116;2023-05-21T09:50:12;101752.25;;;20.81;82.26
49104;BME280;34915;52.926;11.116;2023-05-21T09:52:38;101747.84;;;20.80;83.38
49104;BME280;34915;52.926;11.116;2023-05-21T09:55:09;101750.78;;;20.87;85.55
49104;BME280;34915;52.926;11.116;2023-05-21T09:57:44;101734.38;;;20.80;81.77
49104;BME280;34915;52.926;11.116;2023-05-21T10:00:24;101743.84;;;21.11;81.47
49104;BME280;34915;52.926;11.116;2023-05-21T10:02:56;101746.66;;;21.19;81.13
49104;BME280;34915;52.926;11.116;2023-05-21T10:05:27;101747.09;;;21.32;81.62
49104;BME280;34915;52.926;11.116;2023-05-21T10:07:58;101733.41;;;21.43;81.83
49104;BME280;34915;52.926;11.116;2023-05-21T10:10:26;101739.94;;;21.50;81.47
49104;BME280;34915;52.926;11.116;2023-05-21T10:15:31;101733.31;;;21.62;78.41
49104;BME280;34915;52.926;11.116;2023-05-21T10:18:00;101734.13;;;21.62;79.69
49104;BME280;34915;52.926;11.116;2023-05-21T10:20:26;101731.28;;;21.64;81.74
49104;BME280;34915;52.926;11.116;2023-05-21T10:22:53;101730.59;;;21.62;80.59
49104;BME280;34915;52.926;11.116;2023-05-21T10:25:19;101733.63;;;21.59;80.53
49104;BME280;34915;52.926;11.116;2023-05-21T10:27:47;101728.69;;;21.72;80.04
49104;BME280;34915;52.926;11.116;2023-05-21T10:30:13;101730.44;;;21.80;76.94
49104;BME280;34915;52.926;11.116;2023-05-21T10:32:39;101718.03;;;21.87;75.69
49104;BME280;34915;52.926;11.116;2023-05-21T10:35:08;101728.38;;;22.00;77.12
49104;BME280;34915;52.926;11.116;2023-05-21T10:37:34;101725.53;;;22.01;77.06
49104;BME280;34915;52.926;11.116;2023-05-21T10:40:02;101724.28;;;22.13;79.69
49104;BME280;34915;52.926;11.116;2023-05-21T10:53:42;101709.53;;;22.58;74.34
49104;BME280;34915;52.926;11.116;2023-05-21T11:01:48;101707.25;;;23.04;75.39
49104;BME280;34915;52.926;11.116;2023-05-21T11:04:21;101701.81;;;23.04;75.76
49104;BME280;34915;52.926;11.116;2023-05-21T11:06:47;101687.81;;;23.09;76.70
49104;BME280;34915;52.926;11.116;2023-05-21T11:09:14;101698.13;;;23.13;72.78
49104;BME280;34915;52.926;11.116;2023-05-21T11:11:44;101690.84;;;23.14;71.10
49104;BME280;34915;52.926;11.116;2023-05-21T11:14:38;101698.50;;;23.18;75.90
49104;BME280;34915;52.926;11.116;2023-05-21T11:17:11;101688.19;;;23.22;73.27
49104;BME280;34915;52.926;11.116;2023-05-21T11:19:46;101687.38;;;23.37;74.30
49104;BME280;34915;52.926;11.116;2023-05-21T11:22:22;101675.53;;;23.46;72.96
49104;BME280;34915;52.926;11.116;2023-05-21T11:24:49;101667.06;;;23.57;73.57
49104;BME280;34915;52.926;11.116;2023-05-21T11:27:39;101671.84;;;23.71;71.85
49104;BME280;34915;52.926;11.116;2023-05-21T11:30:17;101656.28;;;23.73;72.66
49104;BME280;34915;52.926;11.116;2023-05-21T11:35:37;101659.66;;;23.82;71.37
49104;BME280;34915;52.926;11.116;2023-05-21T11:38:03;101652.34;;;23.99;67.78
49104;BME280;34915;52.926;11.116;2023-05-21T11:40:34;101644.91;;;24.01;66.94
49104;BME280;34915;52.926;11.116;2023-05-21T11:42:59;101633.88;;;24.10;68.60
49104;BME280;34915;52.926;11.116;2023-05-21T11:45:29;101642.63;;;24.28;69.13
49104;BME280;34915;52.926;11.116;2023-05-21T11:47:55;101648.06;;;24.36;67.08
49104;BME280;34915;52.926;11.116;2023-05-21T11:50:21;101643.97;;;24.32;67.92
49104;BME280;34915;52.926;11.116;2023-05-21T11:52:48;101650.44;;;24.39;64.33
49104;BME280;34915;52.926;11.116;2023-05-21T11:55:13;101645.97;;;24.54;65.65
49104;BME280;34915;52.926;11.116;2023-05-21T11:57:41;101647.69;;;24.47;66.29
49104;BME280;34915;52.926;11.116;2023-05-21T12:00:13;101648.84;;;24.44;63.76
49104;BME280;34915;52.926;11.116;2023-05-21T12:02:44;101648.13;;;24.58;63.51
49104;BME280;34915;52.926;11.116;2023-05-21T12:05:10;101641.19;;;24.56;63.81
49104;BME280;34915;52.926;11.116;2023-05-21T12:07:36;101650.63;;;24.68;63.37
49104;BME280;34915;52.926;11.116;2023-05-21T12:10:03;101634.47;;;24.52;60.61
49104;BME280;34915;52.926;11.116;2023-05-21T12:12:30;101645.56;;;24.65;60.96
49104;BME280;34915;52.926;11.116;2023-05-21T12:14:57;101648.94;;;24.67;61.78
49104;BME280;34915;52.926;11.116;2023-05-21T12:17:24;101637.34;;;24.80;61.32
49104;BME280;34915;52.926;11.116;2023-05-21T12:19:52;101626.19;;;24.76;61.38
49104;BME280;34915;52.926;11.116;2023-05-21T12:22:18;101641.00;;;24.95;59.31
49104;BME280;34915;52.926;11.116;2023-05-21T12:24:46;101637.25;;;25.04;63.45
49104;BME280;34915;52.926;11.116;2023-05-21T12:27:13;101640.50;;;25.22;57.09
49104;BME280;34915;52.926;11.116;2023-05-21T12:29:42;101647.03;;;25.13;57.42
49104;BME280;34915;52.926;11.116;2023-05-21T12:32:09;101639.13;;;24.96;56.98
49104;BME280;34915;52.926;11.116;2023-05-21T12:34:47;101634.91;;;24.93;56.79
49104;BME280;34915;52.926;11.116;2023-05-21T12:37:15;101629.22;;;24.80;55.95
49104;BME280;34915;52.926;11.116;2023-05-21T12:39:45;101635.13;;;24.84;55.29
49104;BME280;34915;52.926;11.116;2023-05-21T12:42:12;101644.25;;;24.91;56.12
49104;BME280;34915;52.926;11.116;2023-05-21T12:44:42;101637.94;;;24.98;56.29
49104;BME280;34915;52.926;11.116;2023-05-21T12:47:09;101625.91;;;25.01;58.26
49104;BME280;34915;52.926;11.116;2023-05-21T12:49:37;101641.72;;;25.20;55.89
49104;BME280;34915;52.926;11.116;2023-05-21T12:52:04;101637.03;;;25.36;56.11
49104;BME280;34915;52.926;11.116;2023-05-21T12:54:34;101636.13;;;25.43;57.05
49104;BME280;34915;52.926;11.116;2023-05-21T12:57:20;101636.50;;;25.55;55.45
49104;BME280;34915;52.926;11.116;2023-05-21T12:59:53;101631.34;;;25.68;57.21
49104;BME280;34915;52.926;11.116;2023-05-21T13:02:24;101632.28;;;25.75;55.29
49104;BME280;34915;52.926;11.116;2023-05-21T13:05:02;101627.97;;;25.66;56.92